Time;durP1;ratioP1;P1;durP2;ratioP2;P2;SDS_P1;SDS_P2;PMS_P1;PMS_P2;Temp;Humidity;BMP_temperature;BMP_pressure;BME280_temperature;BME280_humidity;BME280_pressure;Samples;Min_cycle;Max_cycle;Signal;HPM_P1;HPM_P2
2022/01/12 00:00:20;;;;;;;50.70;18.58;;;;;;;;;;5077241;28;20047;-76
2022/01/12 00:02:46;;;;;;;52.42;21.17;;;;;;;;;;5078393;28;20494;-77
2022/01/12 00:05:12;;;;;;;52.05;18.58;;;;;;;;;;5078168;28;20040;-76
2022/01/12 00:07:38;;;;;;;55.35;19.08;;;;;;;;;;5076857;28;20048;-75
2022/01/12 00:10:05;;;;;;;48.88;18.17;;;;;;;;;;5078381;28;20040;-76
2022/01/12 00:12:31;;;;;;;53.85;19.58;;;;;;;;;;5077699;28;20078;-76
2022/01/12 00:14:57;;;;;;;49.13;19.08;;;;;;;;;;5076639;28;20456;-76
2022/01/12 00:17:22;;;;;;;46.50;18.65;;;;;;;;;;5078504;28;20548;-76
2022/01/12 00:19:48;;;;;;;56.92;19.95;;;;;;;;;;5077521;28;20136;-76
2022/01/12 00:22:15;;;;;;;54.75;20.67;;;;;;;;;;5076856;28;20044;-76
2022/01/12 00:25:12;;;;;;;56.92;20.77;;;;;;;;;;5080587;28;20044;-76
2022/01/12 00:35:35;;;;;;;61.05;21.45;;;;;;;;;;5098398;28;20093;-76
2022/01/12 00:38:01;;;;;;;60.38;21.00;;;;;;;;;;5079665;28;20040;-76
2022/01/12 00:40:27;;;;;;;59.90;20.80;;;;;;;;;;5080875;28;20123;-75
2022/01/12 00:42:53;;;;;;;58.83;20.98;;;;;;;;;;5081050;28;20127;-76
2022/01/12 00:45:20;;;;;;;61.42;21.35;;;;;;;;;;5079240;28;20494;-76
2022/01/12 00:47:46;;;;;;;59.83;20.17;;;;;;;;;;5097926;28;20036;-76
2022/01/12 00:50:12;;;;;;;64.63;21.10;;;;;;;;;;5080346;28;20032;-76
2022/01/12 00:52:38;;;;;;;60.50;21.02;;;;;;;;;;5078803;28;20041;-76
2022/01/12 00:55:05;;;;;;;61.00;20.50;;;;;;;;;;5081189;28;20177;-75
2022/01/12 00:57:31;;;;;;;67.47;21.77;;;;;;;;;;5080219;28;20507;-76
2022/01/12 00:59:57;;;;;;;66.32;21.70;;;;;;;;;;5079204;28;20058;-75
2022/01/12 01:02:23;;;;;;;58.88;20.13;;;;;;;;;;5081149;28;20122;-76
2022/01/12 01:04:49;;;;;;;59.83;20.85;;;;;;;;;;5079539;28;20040;-76
2022/01/12 01:07:17;;;;;;;60.78;21.20;;;;;;;;;;5079294;28;20051;-76
2022/01/12 01:09:51;;;;;;;70.22;20.70;;;;;;;;;;5081881;28;20499;-76
2022/01/12 01:12:18;;;;;;;71.63;22.92;;;;;;;;;;5079003;28;20058;-76
2022/01/12 01:15:07;;;;;;;70.25;20.98;;;;;;;;;;5080652;28;20056;-75
2022/01/12 01:25:45;;;;;;;69.05;20.52;;;;;;;;;;5087208;28;20510;-76
2022/01/12 01:28:13;;;;;;;85.57;22.40;;;;;;;;;;5064551;28;20412;-75
2022/01/12 01:30:40;;;;;;;64.20;20.50;;;;;;;;;;5078744;28;20037;-75
2022/01/12 01:33:08;;;;;;;77.68;23.65;;;;;;;;;;5080400;28;20088;-76
2022/01/12 01:35:36;;;;;;;69.97;22.98;;;;;;;;;;5080509;28;20067;-75
2022/01/12 01:38:03;;;;;;;67.28;20.60;;;;;;;;;;5078305;28;20523;-75
2022/01/12 01:40:30;;;;;;;77.55;22.42;;;;;;;;;;5079935;28;20040;-76
2022/01/12 01:43:07;;;;;;;65.60;21.38;;;;;;;;;;5072624;28;20499;-76
2022/01/12 01:53:49;;;;;;;61.40;20.35;;;;;;;;;;5087104;28;20040;-76
2022/01/12 01:56:16;;;;;;;71.93;20.80;;;;;;;;;;5070101;28;20462;-76
2022/01/12 01:58:42;;;;;;;68.82;20.65;;;;;;;;;;5070228;28;20143;-76
2022/01/12 02:01:08;;;;;;;72.20;23.02;;;;;;;;;;5070035;28;20060;-76
2022/01/12 02:03:34;;;;;;;64.78;21.80;;;;;;;;;;5069826;28;20147;-76
2022/01/12 02:06:00;;;;;;;68.65;23.85;;;;;;;;;;5073324;28;20076;-76
2022/01/12 02:08:27;;;;;;;69.90;20.48;;;;;;;;;;5073807;28;20036;-76
2022/01/12 02:10:54;;;;;;;67.05;19.55;;;;;;;;;;5073711;28;20114;-76
2022/01/12 02:13:20;;;;;;;74.60;22.20;;;;;;;;;;5073755;28;20045;-76
2022/01/12 02:15:47;;;;;;;88.93;23.52;;;;;;;;;;5073389;28;20109;-76
2022/01/12 02:37:17;;;;;;;94.47;21.25;;;;;;;;;;5090646;28;20032;-76
2022/01/12 02:39:56;;;;;;;73.15;18.35;;;;;;;;;;5073307;28;20040;-76
2022/01/12 02:42:24;;;;;;;72.30;20.48;;;;;;;;;;5073559;28;20040;-76
2022/01/12 02:55:48;;;;;;;107.10;21.58;;;;;;;;;;5089886;28;20040;-76
2022/01/12 02:58:14;;;;;;;74.68;20.10;;;;;;;;;;5073253;28;20540;-76
2022/01/12 03:03:30;;;;;;;71.45;18.52;;;;;;;;;;5059186;28;20178;-76
2022/01/12 03:05:59;;;;;;;67.53;19.52;;;;;;;;;;5072988;28;20533;-76
2022/01/12 03:08:26;;;;;;;66.03;19.27;;;;;;;;;;5073083;28;20122;-76
2022/01/12 03:10:52;;;;;;;69.07;19.63;;;;;;;;;;5072702;28;20032;-76
2022/01/12 03:13:19;;;;;;;60.72;20.02;;;;;;;;;;5072623;28;20123;-76
2022/01/12 03:15:47;;;;;;;63.10;18.30;;;;;;;;;;5072289;28;20055;-76
2022/01/12 03:18:13;;;;;;;64.63;18.67;;;;;;;;;;5072866;28;20059;-76
2022/01/12 03:20:39;;;;;;;65.03;20.83;;;;;;;;;;5072722;28;20041;-76
2022/01/12 03:23:05;;;;;;;68.57;20.63;;;;;;;;;;5072509;28;20044;-76
2022/01/12 03:25:31;;;;;;;64.35;19.67;;;;;;;;;;5072475;28;20071;-76
2022/01/12 03:28:01;;;;;;;63.20;19.40;;;;;;;;;;5072874;28;20037;-76
2022/01/12 03:30:34;;;;;;;60.05;20.48;;;;;;;;;;5081783;28;20043;-76
2022/01/12 03:33:10;;;;;;;52.83;17.40;;;;;;;;;;5092823;28;20048;-76
2022/01/12 03:35:51;;;;;;;60.17;19.90;;;;;;;;;;5075639;28;20130;-76
2022/01/12 03:38:20;;;;;;;58.05;18.40;;;;;;;;;;5092493;28;20123;-76
2022/01/12 03:40:47;;;;;;;55.47;19.27;;;;;;;;;;5076047;28;20040;-76
2022/01/12 03:43:13;;;;;;;65.03;18.88;;;;;;;;;;5075853;28;20351;-75
2022/01/12 03:45:40;;;;;;;68.82;22.75;;;;;;;;;;5092383;28;20101;-76
2022/01/12 03:48:06;;;;;;;57.10;19.15;;;;;;;;;;5075617;28;20036;-75
2022/01/12 03:50:32;;;;;;;56.85;17.70;;;;;;;;;;5092489;28;20138;-76
2022/01/12 03:52:58;;;;;;;57.33;18.10;;;;;;;;;;5092473;28;20496;-76
2022/01/12 03:55:24;;;;;;;58.95;20.02;;;;;;;;;;5092210;28;20044;-76
2022/01/12 03:57:50;;;;;;;56.20;19.40;;;;;;;;;;5075402;28;20044;-76
2022/01/12 04:00:15;;;;;;;57.85;19.08;;;;;;;;;;5092053;28;20040;-76
2022/01/12 04:02:41;;;;;;;55.70;17.65;;;;;;;;;;5075346;28;20047;-75
2022/01/12 04:10:19;;;;;;;99.13;19.58;;;;;;;;;;5092150;28;20036;-76
2022/01/12 04:12:45;;;;;;;171.05;22.17;;;;;;;;;;5091758;28;20044;-75
2022/01/12 04:15:11;;;;;;;171.75;22.02;;;;;;;;;;5074958;28;20078;-76
2022/01/12 04:17:37;;;;;;;243.18;25.67;;;;;;;;;;5092048;28;20047;-76
2022/01/12 04:20:04;;;;;;;270.25;28.40;;;;;;;;;;5074876;28;20040;-76
2022/01/12 04:25:16;;;;;;;232.77;24.25;;;;;;;;;;5091599;28;20047;-76
2022/01/12 04:27:42;;;;;;;245.93;25.15;;;;;;;;;;5091053;28;20040;-76
2022/01/12 04:30:09;;;;;;;184.77;23.38;;;;;;;;;;5073693;28;20119;-76
2022/01/12 04:32:37;;;;;;;266.73;27.27;;;;;;;;;;5091431;28;20117;-75
2022/01/12 04:35:04;;;;;;;203.95;23.10;;;;;;;;;;5074359;28;20047;-75
2022/01/12 04:37:30;;;;;;;179.20;22.17;;;;;;;;;;5074138;28;20040;-76
2022/01/12 04:39:56;;;;;;;231.68;26.38;;;;;;;;;;5091289;28;20131;-75
2022/01/12 04:42:22;;;;;;;231.90;25.25;;;;;;;;;;5091558;28;20073;-75
2022/01/12 04:44:49;;;;;;;204.85;23.38;;;;;;;;;;5091232;28;20123;-75
2022/01/12 04:47:28;;;;;;;127.95;18.27;;;;;;;;;;5091251;28;20040;-75
2022/01/12 04:49:56;;;;;;;239.50;23.15;;;;;;;;;;5074269;28;20040;-75
2022/01/12 04:52:23;;;;;;;172.75;22.02;;;;;;;;;;5091043;28;20050;-75
2022/01/12 04:54:49;;;;;;;184.10;22.48;;;;;;;;;;5074483;28;20047;-76
2022/01/12 04:57:15;;;;;;;162.77;19.40;;;;;;;;;;5090930;28;20119;-76
2022/01/12 04:59:54;;;;;;;144.18;18.60;;;;;;;;;;5074309;28;20039;-76
2022/01/12 05:08:10;;;;;;;106.72;17.25;;;;;;;;;;5090863;28;20404;-76
2022/01/12 05:13:23;;;;;;;163.85;19.77;;;;;;;;;;5090638;28;20412;-76
2022/01/12 05:15:49;;;;;;;130.40;18.05;;;;;;;;;;5073652;28;20064;-76
2022/01/12 05:18:15;;;;;;;111.80;17.13;;;;;;;;;;5073781;28;20480;-75
2022/01/12 05:20:41;;;;;;;158.68;17.88;;;;;;;;;;5090957;28;20089;-75
2022/01/12 05:23:07;;;;;;;197.80;19.77;;;;;;;;;;5073624;28;20130;-75
2022/01/12 05:25:33;;;;;;;147.15;16.98;;;;;;;;;;5073633;28;20555;-75
2022/01/12 05:27:59;;;;;;;106.28;16.35;;;;;;;;;;5090524;28;20038;-76
2022/01/12 05:30:25;;;;;;;68.05;13.23;;;;;;;;;;5089077;28;20032;-76
2022/01/12 05:32:51;;;;;;;72.45;13.30;;;;;;;;;;5073429;28;20452;-75
2022/01/12 05:35:18;;;;;;;123.57;16.23;;;;;;;;;;5090467;28;20484;-75
2022/01/12 05:37:44;;;;;;;89.43;16.33;;;;;;;;;;5090483;28;20044;-75
2022/01/12 05:40:11;;;;;;;56.50;14.00;;;;;;;;;;5090480;28;20101;-75
2022/01/12 05:42:37;;;;;;;60.95;13.13;;;;;;;;;;5090492;28;20050;-76
2022/01/12 05:45:04;;;;;;;103.45;14.38;;;;;;;;;;5073907;28;20479;-76
2022/01/12 05:50:17;;;;;;;65.97;14.77;;;;;;;;;;5059431;28;20048;-76
2022/01/12 05:52:43;;;;;;;66.25;13.95;;;;;;;;;;5073495;28;20509;-75
2022/01/12 05:55:11;;;;;;;57.28;13.55;;;;;;;;;;5073438;28;20044;-76
2022/01/12 05:57:37;;;;;;;62.33;13.02;;;;;;;;;;5073345;28;20085;-76
2022/01/12 06:00:10;;;;;;;39.63;11.43;;;;;;;;;;5073841;28;20036;-75
2022/01/12 06:02:36;;;;;;;41.88;12.32;;;;;;;;;;5073296;28;20145;-75
2022/01/12 06:05:03;;;;;;;29.98;10.82;;;;;;;;;;5090181;28;20055;-76
2022/01/12 06:07:29;;;;;;;39.35;13.50;;;;;;;;;;5090359;28;20040;-76
2022/01/12 06:09:55;;;;;;;54.63;12.75;;;;;;;;;;5089913;28;20036;-76
2022/01/12 06:12:21;;;;;;;30.30;12.93;;;;;;;;;;5090083;28;20044;-76
2022/01/12 06:14:47;;;;;;;40.05;12.93;;;;;;;;;;5072994;28;20429;-75
2022/01/12 06:17:13;;;;;;;35.92;12.50;;;;;;;;;;5073157;28;20048;-75
2022/01/12 06:19:40;;;;;;;38.50;13.07;;;;;;;;;;5073107;28;20075;-76
2022/01/12 06:22:06;;;;;;;31.08;11.27;;;;;;;;;;5089822;28;20498;-76
2022/01/12 06:24:32;;;;;;;30.98;11.75;;;;;;;;;;5090067;28;20126;-75
2022/01/12 06:26:59;;;;;;;32.13;11.52;;;;;;;;;;5090389;28;20036;-75
2022/01/12 06:29:38;;;;;;;50.83;13.90;;;;;;;;;;5071145;28;20166;-75
2022/01/12 06:32:04;;;;;;;39.65;11.85;;;;;;;;;;5089881;28;20123;-76
2022/01/12 06:34:30;;;;;;;45.53;12.43;;;;;;;;;;5072667;28;20036;-75
2022/01/12 06:36:56;;;;;;;35.53;12.32;;;;;;;;;;5089491;28;20512;-75
2022/01/12 06:39:23;;;;;;;35.63;13.85;;;;;;;;;;5089702;28;20465;-76
2022/01/12 06:41:51;;;;;;;31.25;11.70;;;;;;;;;;5072472;28;20137;-75
2022/01/12 06:44:17;;;;;;;44.40;13.48;;;;;;;;;;5088970;28;20042;-76
2022/01/12 06:46:44;;;;;;;83.20;15.38;;;;;;;;;;5072662;28;20040;-76
2022/01/12 06:49:11;;;;;;;51.65;13.57;;;;;;;;;;5089867;28;20415;-76
2022/01/12 06:51:38;;;;;;;50.75;12.02;;;;;;;;;;5075834;28;20040;-76
2022/01/12 06:54:04;;;;;;;37.05;11.32;;;;;;;;;;5094103;28;20491;-75
2022/01/12 06:56:30;;;;;;;38.13;12.32;;;;;;;;;;5093066;28;20040;-76
2022/01/12 06:58:56;;;;;;;30.20;10.57;;;;;;;;;;5093009;28;20052;-75
2022/01/12 07:01:22;;;;;;;27.63;11.18;;;;;;;;;;5092818;28;20047;-76
2022/01/12 07:03:48;;;;;;;24.23;10.52;;;;;;;;;;5092709;28;20039;-75
2022/01/12 07:06:14;;;;;;;34.28;10.07;;;;;;;;;;5076063;28;20545;-75
2022/01/12 07:08:40;;;;;;;34.65;11.85;;;;;;;;;;5092747;28;20040;-76
2022/01/12 07:11:06;;;;;;;27.95;10.65;;;;;;;;;;5075755;28;20032;-76
2022/01/12 07:13:32;;;;;;;24.38;9.38;;;;;;;;;;5075823;28;20488;-75
2022/01/12 07:15:59;;;;;;;23.52;9.90;;;;;;;;;;5075637;28;20059;-76
2022/01/12 07:18:26;;;;;;;22.50;9.70;;;;;;;;;;5092457;28;20123;-76
2022/01/12 07:20:52;;;;;;;18.88;9.63;;;;;;;;;;5075754;28;20403;-76
2022/01/12 07:23:18;;;;;;;22.92;9.50;;;;;;;;;;5092778;28;20138;-75
2022/01/12 07:25:44;;;;;;;21.65;9.00;;;;;;;;;;5075761;28;20062;-75
2022/01/12 07:28:10;;;;;;;24.83;9.30;;;;;;;;;;5092585;28;20122;-76
2022/01/12 07:30:36;;;;;;;22.30;9.77;;;;;;;;;;5075951;28;20130;-76
2022/01/12 07:33:02;;;;;;;24.33;9.20;;;;;;;;;;5092298;28;20036;-76
2022/01/12 07:35:28;;;;;;;24.08;9.07;;;;;;;;;;5075428;28;20043;-76
2022/01/12 07:37:54;;;;;;;29.13;9.90;;;;;;;;;;5075519;28;20047;-76
2022/01/12 07:40:20;;;;;;;23.10;9.77;;;;;;;;;;5075460;28;20036;-75
2022/01/12 07:42:46;;;;;;;30.98;10.77;;;;;;;;;;5092213;28;20408;-75
2022/01/12 07:45:12;;;;;;;31.25;10.18;;;;;;;;;;5092330;28;20040;-75
2022/01/12 07:47:39;;;;;;;43.67;11.25;;;;;;;;;;5092295;28;20044;-75
2022/01/12 07:50:06;;;;;;;44.50;11.13;;;;;;;;;;5092041;28;20089;-75
2022/01/12 07:52:32;;;;;;;74.72;12.30;;;;;;;;;;5075406;28;20047;-76
2022/01/12 07:54:58;;;;;;;106.82;14.88;;;;;;;;;;5075387;28;20036;-75
2022/01/12 07:57:24;;;;;;;71.53;12.25;;;;;;;;;;5075234;28;20071;-75
2022/01/12 07:59:50;;;;;;;73.85;12.02;;;;;;;;;;5092307;28;20085;-75
2022/01/12 08:02:16;;;;;;;90.53;12.68;;;;;;;;;;5090686;28;20040;-75
2022/01/12 08:04:42;;;;;;;62.03;10.80;;;;;;;;;;5074734;28;20043;-75
2022/01/12 08:07:10;;;;;;;50.47;10.05;;;;;;;;;;5074962;28;20449;-76
2022/01/12 08:09:37;;;;;;;55.10;9.13;;;;;;;;;;5091554;28;20049;-76
2022/01/12 08:12:03;;;;;;;60.97;11.77;;;;;;;;;;5074626;28;20476;-76
2022/01/12 08:14:29;;;;;;;81.30;10.00;;;;;;;;;;5091208;28;20496;-75
2022/01/12 08:16:54;;;;;;;90.55;12.50;;;;;;;;;;5074559;28;20101;-76
2022/01/12 08:19:22;;;;;;;34.47;7.90;;;;;;;;;;5091383;28;20047;-76
2022/01/12 08:21:48;;;;;;;54.00;9.25;;;;;;;;;;5091254;28;20043;-75
2022/01/12 08:24:14;;;;;;;44.10;8.77;;;;;;;;;;5091332;28;20165;-75
2022/01/12 08:26:41;;;;;;;54.05;10.50;;;;;;;;;;5074608;28;20036;-75
2022/01/12 08:29:13;;;;;;;49.42;8.75;;;;;;;;;;5091252;28;20127;-76
2022/01/12 08:31:40;;;;;;;37.58;8.70;;;;;;;;;;5091158;28;20581;-76
2022/01/12 08:34:05;;;;;;;46.53;9.25;;;;;;;;;;5091106;28;20040;-76
2022/01/12 08:36:31;;;;;;;34.63;8.10;;;;;;;;;;5074416;28;20491;-75
2022/01/12 08:38:59;;;;;;;28.60;8.05;;;;;;;;;;5074765;28;20090;-75
2022/01/12 08:41:25;;;;;;;42.15;7.15;;;;;;;;;;5074518;28;20130;-76
2022/01/12 08:43:52;;;;;;;44.72;7.90;;;;;;;;;;5091533;28;20102;-75
2022/01/12 08:46:18;;;;;;;28.90;6.50;;;;;;;;;;5074878;28;20039;-76
2022/01/12 08:48:44;;;;;;;38.97;7.70;;;;;;;;;;5091908;28;20072;-76
2022/01/12 08:51:09;;;;;;;38.88;7.15;;;;;;;;;;5091988;28;20631;-76
2022/01/12 08:53:35;;;;;;;66.68;8.45;;;;;;;;;;5091776;28;20032;-75
2022/01/12 08:56:03;;;;;;;47.20;7.18;;;;;;;;;;5091211;28;20093;-76
2022/01/12 08:58:29;;;;;;;21.02;6.50;;;;;;;;;;5074034;28;20072;-75
2022/01/12 09:00:56;;;;;;;40.30;7.22;;;;;;;;;;5090976;28;20075;-76
2022/01/12 09:03:22;;;;;;;45.95;7.95;;;;;;;;;;5090844;28;20058;-76
2022/01/12 09:05:49;;;;;;;42.67;7.55;;;;;;;;;;5090823;28;20044;-76
2022/01/12 09:08:15;;;;;;;43.58;8.40;;;;;;;;;;5090806;28;20044;-76
2022/01/12 09:10:41;;;;;;;30.52;6.55;;;;;;;;;;5073927;28;20036;-75
2022/01/12 09:13:07;;;;;;;36.03;6.97;;;;;;;;;;5090409;28;20419;-76
2022/01/12 09:15:33;;;;;;;30.27;7.25;;;;;;;;;;5090753;28;20102;-75
2022/01/12 09:17:59;;;;;;;32.67;7.25;;;;;;;;;;5073794;28;20040;-76
2022/01/12 09:20:25;;;;;;;38.97;8.07;;;;;;;;;;5071709;28;20126;-76
2022/01/12 09:22:52;;;;;;;37.45;7.18;;;;;;;;;;5070376;28;20044;-75
2022/01/12 09:25:18;;;;;;;45.35;6.70;;;;;;;;;;5086643;28;20048;-77
2022/01/12 09:27:44;;;;;;;31.58;6.22;;;;;;;;;;5086950;28;20123;-76
2022/01/12 09:30:11;;;;;;;42.22;6.20;;;;;;;;;;5085734;28;20575;-76
2022/01/12 09:32:37;;;;;;;27.08;5.95;;;;;;;;;;5070352;28;20130;-76
2022/01/12 09:35:03;;;;;;;19.05;5.97;;;;;;;;;;5086886;28;20079;-76
2022/01/12 09:37:29;;;;;;;54.88;6.80;;;;;;;;;;5069454;28;20051;-76
2022/01/12 09:39:55;;;;;;;29.65;6.57;;;;;;;;;;5070276;28;20078;-76
2022/01/12 09:42:21;;;;;;;26.25;5.82;;;;;;;;;;5069928;28;20048;-76
2022/01/12 09:44:48;;;;;;;20.75;6.05;;;;;;;;;;5069813;28;20043;-77
2022/01/12 09:47:15;;;;;;;48.47;7.50;;;;;;;;;;5086867;28;20086;-77
2022/01/12 09:49:42;;;;;;;40.22;6.72;;;;;;;;;;5086230;28;20492;-76
2022/01/12 09:52:08;;;;;;;53.78;6.97;;;;;;;;;;5069963;28;20047;-76
2022/01/12 09:54:35;;;;;;;72.13;8.50;;;;;;;;;;5070050;28;20048;-76
2022/01/12 09:57:01;;;;;;;30.70;5.85;;;;;;;;;;5070141;28;20052;-77
2022/01/12 09:59:27;;;;;;;43.88;6.13;;;;;;;;;;5086959;28;20040;-76
2022/01/12 10:01:54;;;;;;;34.90;6.43;;;;;;;;;;5069823;28;20096;-76
2022/01/12 10:04:20;;;;;;;43.78;7.43;;;;;;;;;;5069771;28;20048;-76
2022/01/12 10:06:47;;;;;;;46.10;6.47;;;;;;;;;;5086711;28;20083;-76
2022/01/12 10:09:14;;;;;;;48.05;5.93;;;;;;;;;;5069645;28;20036;-76
2022/01/12 10:11:49;;;;;;;17.80;4.28;;;;;;;;;;5086937;28;20123;-76
2022/01/12 10:14:15;;;;;;;24.08;5.22;;;;;;;;;;5086547;28;20555;-77
2022/01/12 10:16:49;;;;;;;32.67;5.97;;;;;;;;;;5069986;28;20189;-76
2022/01/12 10:19:24;;;;;;;29.17;5.03;;;;;;;;;;5069860;28;20044;-76
2022/01/12 10:21:50;;;;;;;23.40;5.13;;;;;;;;;;5087898;28;20035;-76
2022/01/12 10:24:18;;;;;;;16.88;5.20;;;;;;;;;;5070334;28;20048;-76
2022/01/12 10:26:47;;;;;;;17.30;5.03;;;;;;;;;;5072671;28;20450;-76
2022/01/12 10:29:15;;;;;;;13.90;4.68;;;;;;;;;;5073018;28;20123;-75
2022/01/12 10:32:00;;;;;;;18.48;4.72;;;;;;;;;;5073073;28;20071;-76
2022/01/12 10:34:28;;;;;;;25.92;6.25;;;;;;;;;;5072967;28;20062;-76
2022/01/12 10:36:54;;;;;;;25.25;4.68;;;;;;;;;;5089688;28;20039;-76
2022/01/12 10:39:23;;;;;;;18.15;4.60;;;;;;;;;;5073483;28;20051;-76
2022/01/12 10:41:55;;;;;;;15.60;5.22;;;;;;;;;;5073304;28;20051;-77
2022/01/12 10:44:22;;;;;;;15.40;4.05;;;;;;;;;;5090165;28;20052;-76
2022/01/12 10:46:48;;;;;;;28.10;4.25;;;;;;;;;;5073208;28;20444;-76
2022/01/12 10:49:21;;;;;;;21.20;4.72;;;;;;;;;;5089441;28;20043;-76
2022/01/12 10:51:54;;;;;;;17.45;4.38;;;;;;;;;;5072878;28;20092;-76
2022/01/12 10:54:20;;;;;;;17.15;4.75;;;;;;;;;;5072982;28;20058;-76
2022/01/12 10:56:46;;;;;;;19.48;4.45;;;;;;;;;;5073215;28;20044;-76
2022/01/12 10:59:16;;;;;;;22.35;4.95;;;;;;;;;;5072715;28;20528;-76
2022/01/12 11:01:42;;;;;;;10.27;4.30;;;;;;;;;;5073236;28;20044;-76
2022/01/12 11:04:08;;;;;;;21.33;4.63;;;;;;;;;;5071598;28;20043;-76
2022/01/12 11:06:35;;;;;;;39.13;5.80;;;;;;;;;;5071100;28;20047;-77
2022/01/12 11:09:01;;;;;;;18.50;5.13;;;;;;;;;;5089244;28;20511;-76
2022/01/12 11:11:29;;;;;;;11.38;4.22;;;;;;;;;;5071974;28;20484;-77
2022/01/12 11:13:55;;;;;;;13.95;4.63;;;;;;;;;;5088679;28;20081;-77
2022/01/12 11:16:23;;;;;;;18.33;4.68;;;;;;;;;;5089673;28;20052;-76
2022/01/12 11:18:49;;;;;;;23.35;5.53;;;;;;;;;;5089455;28;20510;-77
2022/01/12 11:21:15;;;;;;;18.50;4.55;;;;;;;;;;5089867;28;20039;-76
2022/01/12 11:23:42;;;;;;;15.40;4.57;;;;;;;;;;5089244;28;20431;-77
2022/01/12 11:26:23;;;;;;;16.20;4.72;;;;;;;;;;5089968;28;20040;-77
2022/01/12 11:28:53;;;;;;;13.23;5.07;;;;;;;;;;5073816;28;20043;-76
2022/01/12 11:31:27;;;;;;;14.23;5.47;;;;;;;;;;5072484;28;20044;-76
2022/01/12 11:33:53;;;;;;;17.45;4.80;;;;;;;;;;5090719;28;20040;-78
2022/01/12 11:36:25;;;;;;;18.73;5.57;;;;;;;;;;5090278;28;20151;-76
2022/01/12 11:39:05;;;;;;;16.98;4.60;;;;;;;;;;5090148;28;20047;-76
2022/01/12 11:41:33;;;;;;;16.67;5.38;;;;;;;;;;5073723;28;20043;-76
2022/01/12 11:44:07;;;;;;;15.02;4.25;;;;;;;;;;5073120;28;20047;-76
2022/01/12 11:46:52;;;;;;;12.70;4.75;;;;;;;;;;5073457;28;20035;-77
2022/01/12 11:49:32;;;;;;;16.08;5.15;;;;;;;;;;5072641;28;20036;-78
2022/01/12 11:51:59;;;;;;;13.52;4.50;;;;;;;;;;5072341;28;20050;-77
2022/01/12 11:54:36;;;;;;;16.05;4.95;;;;;;;;;;5071800;28;20051;-77
2022/01/12 11:57:02;;;;;;;18.23;5.20;;;;;;;;;;5071844;28;20487;-77
2022/01/12 11:59:29;;;;;;;14.10;4.63;;;;;;;;;;5071862;28;20036;-77
2022/01/12 12:02:09;;;;;;;11.55;5.13;;;;;;;;;;5068900;28;20044;-77
2022/01/12 12:04:36;;;;;;;14.55;4.38;;;;;;;;;;5088234;28;20093;-77
2022/01/12 12:07:06;;;;;;;12.38;4.38;;;;;;;;;;5088200;28;20070;-78
2022/01/12 12:09:38;;;;;;;8.95;4.38;;;;;;;;;;5087870;28;20040;-76
2022/01/12 12:12:14;;;;;;;18.05;4.88;;;;;;;;;;5087932;28;20135;-76
2022/01/12 12:14:41;;;;;;;19.52;5.10;;;;;;;;;;5087550;28;20060;-77
2022/01/12 12:17:08;;;;;;;11.30;4.28;;;;;;;;;;5087977;28;20044;-77
2022/01/12 12:19:37;;;;;;;16.38;4.93;;;;;;;;;;5088351;28;20050;-79
2022/01/12 12:22:29;;;;;;;12.68;4.78;;;;;;;;;;5088782;28;20557;-76
2022/01/12 12:25:02;;;;;;;18.48;5.75;;;;;;;;;;5067676;28;20052;-76
2022/01/12 12:27:29;;;;;;;13.00;4.60;;;;;;;;;;5088091;28;20453;-76
2022/01/12 12:29:55;;;;;;;16.42;5.25;;;;;;;;;;5087694;28;20090;-76
2022/01/12 12:32:33;;;;;;;12.10;4.50;;;;;;;;;;5087776;28;20131;-76
2022/01/12 12:35:00;;;;;;;11.48;4.50;;;;;;;;;;5087975;28;20051;-77
2022/01/12 12:37:34;;;;;;;12.63;5.18;;;;;;;;;;5087658;28;20048;-76
2022/01/12 12:40:10;;;;;;;12.85;5.03;;;;;;;;;;5087633;28;20043;-76
2022/01/12 12:42:38;;;;;;;13.73;4.68;;;;;;;;;;5087295;28;20083;-77
2022/01/12 12:45:04;;;;;;;16.33;4.47;;;;;;;;;;5087580;28;20723;-76
2022/01/12 12:47:32;;;;;;;19.35;4.88;;;;;;;;;;5087439;28;20040;-77
2022/01/12 12:50:01;;;;;;;20.02;5.85;;;;;;;;;;5086756;28;20044;-77
2022/01/12 12:52:29;;;;;;;15.32;5.47;;;;;;;;;;5087487;28;20050;-77
2022/01/12 12:54:56;;;;;;;16.67;5.57;;;;;;;;;;5087204;28;20131;-76
2022/01/12 12:57:23;;;;;;;15.73;5.40;;;;;;;;;;5087522;28;20052;-77
2022/01/12 12:59:49;;;;;;;16.83;5.60;;;;;;;;;;5087122;28;20050;-77
2022/01/12 13:02:17;;;;;;;20.58;5.47;;;;;;;;;;5086876;28;20044;-76
2022/01/12 13:04:43;;;;;;;17.85;5.63;;;;;;;;;;5087074;28;20044;-77
2022/01/12 13:07:17;;;;;;;14.80;5.38;;;;;;;;;;5087290;28;20044;-77
2022/01/12 13:09:43;;;;;;;15.55;5.22;;;;;;;;;;5086878;28;20126;-76
2022/01/12 13:12:09;;;;;;;19.73;6.65;;;;;;;;;;5086983;28;20040;-77
2022/01/12 13:14:43;;;;;;;19.60;6.35;;;;;;;;;;5088739;28;20519;-77
2022/01/12 13:17:09;;;;;;;18.17;6.18;;;;;;;;;;5090718;28;20458;-77
2022/01/12 13:22:27;;;;;;;17.48;5.32;;;;;;;;;;5090429;28;20052;-77
2022/01/12 13:24:53;;;;;;;22.55;5.50;;;;;;;;;;5090465;28;20036;-77
2022/01/12 13:27:20;;;;;;;21.10;6.05;;;;;;;;;;5090389;28;20043;-77
2022/01/12 13:29:47;;;;;;;21.98;6.60;;;;;;;;;;5090663;28;20036;-77
2022/01/12 13:32:13;;;;;;;18.45;5.65;;;;;;;;;;5090768;28;20116;-77
2022/01/12 13:34:42;;;;;;;22.60;5.10;;;;;;;;;;5090336;28;20043;-78
2022/01/12 13:37:13;;;;;;;16.23;5.68;;;;;;;;;;5090387;28;20093;-77
2022/01/12 13:39:39;;;;;;;13.43;5.15;;;;;;;;;;5090115;28;20040;-78
2022/01/12 13:42:06;;;;;;;14.90;5.93;;;;;;;;;;5089847;28;20040;-76
2022/01/12 13:44:32;;;;;;;17.10;6.38;;;;;;;;;;5090223;28;20120;-77
2022/01/12 13:47:23;;;;;;;14.93;5.88;;;;;;;;;;5090100;28;20123;-77
2022/01/12 13:49:48;;;;;;;19.33;5.87;;;;;;;;;;5090241;28;20051;-76
2022/01/12 13:52:14;;;;;;;22.98;6.50;;;;;;;;;;5089849;28;20036;-77
2022/01/12 13:54:41;;;;;;;19.52;5.15;;;;;;;;;;5090039;28;20487;-77
2022/01/12 13:57:09;;;;;;;23.63;6.57;;;;;;;;;;5090130;28;20118;-77
2022/01/12 13:59:48;;;;;;;22.25;6.90;;;;;;;;;;5089980;28;20487;-78
2022/01/12 14:02:15;;;;;;;21.40;6.55;;;;;;;;;;5094450;28;20135;-77
2022/01/12 14:04:45;;;;;;;17.15;6.35;;;;;;;;;;5094396;28;20065;-77
2022/01/12 14:07:21;;;;;;;21.77;5.57;;;;;;;;;;5094553;28;20036;-76
2022/01/12 14:09:53;;;;;;;21.70;7.15;;;;;;;;;;5094033;28;20044;-77
2022/01/12 14:12:20;;;;;;;19.15;7.45;;;;;;;;;;5094325;28;20483;-77
2022/01/12 14:14:53;;;;;;;17.23;5.95;;;;;;;;;;5093683;28;20056;-77
2022/01/12 14:17:22;;;;;;;16.92;5.97;;;;;;;;;;5093938;28;20047;-77
2022/01/12 14:19:55;;;;;;;20.20;6.30;;;;;;;;;;5093998;28;20529;-77
2022/01/12 14:22:22;;;;;;;15.98;5.47;;;;;;;;;;5093873;28;20050;-77
2022/01/12 14:25:14;;;;;;;16.50;5.85;;;;;;;;;;5093789;28;20136;-77
2022/01/12 14:27:41;;;;;;;17.27;5.47;;;;;;;;;;5074077;28;20056;-76
2022/01/12 14:30:08;;;;;;;13.55;5.57;;;;;;;;;;5093615;28;20119;-76
2022/01/12 14:32:38;;;;;;;13.57;5.40;;;;;;;;;;5093531;28;20404;-77
2022/01/12 14:35:05;;;;;;;16.02;6.90;;;;;;;;;;5093401;28;20156;-78
2022/01/12 14:37:31;;;;;;;16.05;5.32;;;;;;;;;;5093577;28;20047;-77
2022/01/12 14:39:57;;;;;;;14.50;4.93;;;;;;;;;;5093392;28;20097;-77
2022/01/12 14:42:23;;;;;;;15.07;5.15;;;;;;;;;;5093656;28;20048;-76
2022/01/12 14:44:49;;;;;;;15.90;5.32;;;;;;;;;;5093377;28;20046;-77
2022/01/12 14:47:15;;;;;;;15.40;6.00;;;;;;;;;;5093416;28;20075;-77
2022/01/12 14:49:41;;;;;;;15.40;5.80;;;;;;;;;;5093216;28;20101;-76
2022/01/12 14:52:07;;;;;;;15.65;4.93;;;;;;;;;;5093251;28;20040;-77
2022/01/12 14:54:34;;;;;;;14.20;5.50;;;;;;;;;;5093457;28;20043;-76
2022/01/12 14:57:00;;;;;;;14.13;4.82;;;;;;;;;;5093138;28;20075;-78
2022/01/12 14:59:26;;;;;;;13.77;5.60;;;;;;;;;;5093086;28;20047;-76
2022/01/12 15:01:52;;;;;;;17.40;6.18;;;;;;;;;;5092972;28;20093;-77
2022/01/12 15:04:18;;;;;;;11.18;5.22;;;;;;;;;;5092706;28;20096;-77
2022/01/12 15:06:44;;;;;;;17.88;6.28;;;;;;;;;;5092941;28;20092;-77
2022/01/12 15:09:10;;;;;;;15.57;6.05;;;;;;;;;;5093024;28;20123;-76
2022/01/12 15:11:40;;;;;;;14.23;5.63;;;;;;;;;;5092176;28;20434;-76
2022/01/12 15:14:24;;;;;;;15.57;5.63;;;;;;;;;;5084287;28;20412;-78
2022/01/12 15:16:50;;;;;;;17.10;5.28;;;;;;;;;;5089390;28;20400;-75
2022/01/12 15:19:16;;;;;;;17.58;5.22;;;;;;;;;;5089989;28;20040;-77
2022/01/12 15:21:43;;;;;;;16.98;5.22;;;;;;;;;;5092609;28;20036;-78
2022/01/12 15:24:09;;;;;;;15.80;6.43;;;;;;;;;;5092970;28;20044;-76
2022/01/12 15:26:35;;;;;;;21.15;6.05;;;;;;;;;;5093558;28;20127;-77
2022/01/12 15:29:01;;;;;;;12.88;6.57;;;;;;;;;;5093113;28;20123;-77
2022/01/12 15:31:27;;;;;;;21.38;6.80;;;;;;;;;;5092915;28;20495;-77
2022/01/12 15:33:53;;;;;;;21.48;6.95;;;;;;;;;;5092877;28;20067;-77
2022/01/12 15:36:19;;;;;;;17.90;5.55;;;;;;;;;;5092800;28;20086;-77
2022/01/12 15:38:45;;;;;;;16.25;6.35;;;;;;;;;;5092605;28;20053;-76
2022/01/12 15:41:11;;;;;;;13.85;5.75;;;;;;;;;;5092469;28;20090;-77
2022/01/12 15:43:37;;;;;;;16.65;6.07;;;;;;;;;;5092562;28;20097;-76
2022/01/12 15:46:03;;;;;;;17.50;5.82;;;;;;;;;;5092479;28;20450;-78